Time;durP1;ratioP1;P1;durP2;ratioP2;P2;SDS_P1;SDS_P2;PMS_P1;PMS_P2;Temp;Humidity;BMP_temperature;BMP_pressure;BME280_temperature;BME280_humidity;BME280_pressure;Samples;Min_cycle;Max_cycle;Signal;HPM_P1;HPM_P2
2020/12/08 00:01:02;;;;;;;20.23;12.97;;;-0.40;83.10;;;;;;4902256;29;20214;-80
2020/12/08 00:03:30;;;;;;;19.93;11.83;;;-0.40;83.20;;;;;;4904338;29;21617;-83
2020/12/08 00:05:59;;;;;;;20.47;11.53;;;-0.50;83.30;;;;;;4892275;29;20491;-82
2020/12/08 00:08:28;;;;;;;20.77;12.67;;;-0.50;83.20;;;;;;4893875;29;20510;-81
2020/12/08 00:10:56;;;;;;;18.07;12.23;;;-0.50;83.40;;;;;;4893716;29;20200;-81
2020/12/08 00:13:24;;;;;;;17.67;10.80;;;-0.50;83.30;;;;;;4893214;29;20211;-81
2020/12/08 00:15:52;;;;;;;18.13;12.47;;;-0.50;83.30;;;;;;4893137;29;20242;-79
2020/12/08 00:18:19;;;;;;;15.00;9.17;;;-0.50;83.30;;;;;;4895848;29;20223;-82
2020/12/08 00:20:47;;;;;;;18.83;11.43;;;-0.50;83.30;;;;;;4890958;29;20212;-80
2020/12/08 00:23:15;;;;;;;21.23;12.37;;;-0.50;83.20;;;;;;4896732;29;20291;-81
2020/12/08 00:25:43;;;;;;;18.97;11.50;;;-0.50;83.30;;;;;;4906173;28;20317;-82
2020/12/08 00:28:11;;;;;;;16.77;10.67;;;-0.50;83.20;;;;;;4907712;28;20191;-84
2020/12/08 00:30:38;;;;;;;17.57;11.30;;;-0.50;83.20;;;;;;4902384;28;20211;-80
2020/12/08 00:33:06;;;;;;;18.97;12.23;;;-0.50;83.20;;;;;;4894928;29;20472;-81
2020/12/08 00:35:34;;;;;;;19.43;11.07;;;-0.50;83.20;;;;;;4896647;29;20251;-82
2020/12/08 00:38:02;;;;;;;21.97;12.37;;;-0.50;83.30;;;;;;4890431;29;20733;-81
2020/12/08 00:40:30;;;;;;;20.13;10.50;;;-0.50;83.30;;;;;;4895239;29;20219;-79
2020/12/08 00:43:00;;;;;;;11.43;8.50;;;-0.50;83.20;;;;;;4889488;29;20195;-80
2020/12/08 00:45:27;;;;;;;18.00;12.30;;;-0.50;83.20;;;;;;4895313;29;20218;-82
2020/12/08 00:47:55;;;;;;;21.37;12.60;;;-0.60;83.30;;;;;;4891386;29;20210;-80
2020/12/08 00:50:22;;;;;;;18.57;11.43;;;-0.60;83.20;;;;;;4891681;29;20291;-82
2020/12/08 00:52:50;;;;;;;15.73;10.47;;;-0.60;83.20;;;;;;4889636;29;20283;-82
2020/12/08 00:55:18;;;;;;;17.53;11.43;;;-0.60;83.20;;;;;;4887341;29;20246;-80
2020/12/08 00:57:45;;;;;;;17.10;11.80;;;-0.50;83.20;;;;;;4907896;29;20675;-81
2020/12/08 01:00:15;;;;;;;12.53;8.37;;;-0.60;83.20;;;;;;4905945;29;20215;-82
2020/12/08 01:02:42;;;;;;;23.40;12.00;;;-0.60;83.20;;;;;;4906024;29;20203;-81
2020/12/08 01:05:11;;;;;;;20.07;12.00;;;-0.50;83.20;;;;;;4905110;29;20213;-86
2020/12/08 01:07:39;;;;;;;18.17;11.10;;;-0.50;83.20;;;;;;4903603;29;20206;-82
2020/12/08 01:10:07;;;;;;;15.63;8.77;;;-0.60;83.10;;;;;;4892748;29;20207;-81
2020/12/08 01:12:34;;;;;;;19.27;11.30;;;-0.60;83.00;;;;;;4896086;29;20224;-82
2020/12/08 01:15:06;;;;;;;18.17;11.90;;;-0.60;83.00;;;;;;4893648;29;20466;-80
2020/12/08 01:17:34;;;;;;;17.93;11.00;;;-0.60;83.00;;;;;;4894208;29;20214;-81
2020/12/08 01:20:02;;;;;;;16.80;11.00;;;-0.60;83.10;;;;;;4890006;29;20196;-77
2020/12/08 01:22:30;;;;;;;14.47;9.30;;;-0.60;83.10;;;;;;4892333;29;20573;-83
2020/12/08 01:24:58;;;;;;;16.77;9.90;;;-0.60;82.90;;;;;;4889241;29;20211;-81
2020/12/08 01:27:26;;;;;;;12.87;9.37;;;-0.60;82.60;;;;;;4899218;29;20215;-82
2020/12/08 01:29:53;;;;;;;13.93;8.83;;;-0.60;82.60;;;;;;4897382;29;20209;-82
2020/12/08 01:32:21;;;;;;;14.43;9.33;;;-0.60;82.40;;;;;;4893492;29;21146;-82
2020/12/08 01:34:50;;;;;;;15.77;10.67;;;-0.60;82.40;;;;;;4893819;29;20222;-81
2020/12/08 01:37:18;;;;;;;13.53;9.50;;;-0.60;82.30;;;;;;4892027;29;20364;-83
2020/12/08 01:39:46;;;;;;;17.20;8.70;;;-0.60;82.20;;;;;;4894967;29;20702;-82
2020/12/08 01:42:13;;;;;;;21.63;10.67;;;-0.70;82.00;;;;;;4892438;29;20834;-81
2020/12/08 01:44:46;;;;;;;17.43;10.63;;;-0.70;82.20;;;;;;4887666;29;20192;-79
2020/12/08 01:47:15;;;;;;;19.27;9.87;;;-0.60;82.00;;;;;;4896985;29;20324;-82
2020/12/08 01:49:44;;;;;;;15.80;8.60;;;-0.70;82.10;;;;;;4900363;29;20216;-81
2020/12/08 01:52:15;;;;;;;17.80;11.03;;;-0.50;82.10;;;;;;4908298;28;20192;-82
2020/12/08 01:54:45;;;;;;;17.67;11.50;;;-0.70;82.00;;;;;;4910464;28;20187;-80
2020/12/08 01:57:13;;;;;;;14.17;8.90;;;-0.70;82.00;;;;;;4908657;28;20237;-82
2020/12/08 01:59:41;;;;;;;15.60;9.70;;;-0.70;82.00;;;;;;4909338;29;20218;-80
2020/12/08 02:02:08;;;;;;;15.97;10.13;;;-0.70;82.10;;;;;;4901525;29;20208;-80
2020/12/08 02:04:37;;;;;;;13.57;10.33;;;-0.70;82.00;;;;;;4897709;29;20196;-79
2020/12/08 02:07:05;;;;;;;17.43;10.33;;;-0.70;82.10;;;;;;4897710;29;20236;-82
2020/12/08 02:09:36;;;;;;;13.77;9.60;;;-0.70;82.10;;;;;;4896028;29;20582;-81
2020/12/08 02:12:04;;;;;;;16.37;9.63;;;-0.70;82.00;;;;;;4903476;28;20374;-84
2020/12/08 02:14:31;;;;;;;17.70;10.13;;;-0.70;82.00;;;;;;4984322;23;20250;-83
2020/12/08 02:16:59;;;;;;;18.43;9.87;;;-0.70;82.10;;;;;;5023308;28;20593;-81
2020/12/08 02:19:30;;;;;;;16.23;9.57;;;-0.60;82.10;;;;;;5010393;28;20214;-81
2020/12/08 02:22:00;;;;;;;14.60;9.83;;;-0.60;82.00;;;;;;5013326;28;20230;-82
2020/12/08 02:24:27;;;;;;;12.43;9.10;;;-0.70;81.90;;;;;;5020151;28;20185;-80
2020/12/08 02:26:55;;;;;;;16.57;10.43;;;-0.70;82.00;;;;;;5022359;28;20203;-80
2020/12/08 02:29:23;;;;;;;13.77;9.00;;;-0.60;82.00;;;;;;5020543;28;20207;-79
2020/12/08 02:31:50;;;;;;;8.40;6.03;;;-0.60;82.00;;;;;;5021313;28;20210;-80
2020/12/08 02:34:18;;;;;;;13.03;8.53;;;-0.60;82.00;;;;;;5013465;28;20543;-82
2020/12/08 02:36:51;;;;;;;15.27;9.07;;;-0.60;81.90;;;;;;5026838;28;20235;-81
2020/12/08 02:39:19;;;;;;;16.93;10.27;;;-0.60;82.10;;;;;;5015506;28;20243;-81
2020/12/08 02:41:47;;;;;;;14.93;9.80;;;-0.60;82.00;;;;;;5022902;28;20203;-82
2020/12/08 02:44:14;;;;;;;18.40;9.10;;;-0.60;81.90;;;;;;5018531;28;20199;-80
2020/12/08 02:46:42;;;;;;;17.33;8.20;;;-0.60;81.90;;;;;;5013900;28;20200;-83
2020/12/08 02:49:10;;;;;;;15.60;9.97;;;-0.50;82.10;;;;;;5019965;28;20206;-81
2020/12/08 02:51:37;;;;;;;12.90;7.13;;;-0.50;82.00;;;;;;5011584;28;20207;-82
2020/12/08 02:54:05;;;;;;;16.13;9.17;;;-0.50;81.90;;;;;;5006481;28;20219;-81
2020/12/08 02:56:37;;;;;;;12.67;6.83;;;-0.50;82.00;;;;;;5006751;28;20259;-81
2020/12/08 02:59:07;;;;;;;14.47;9.77;;;-0.50;82.00;;;;;;5005017;28;20294;-83
2020/12/08 03:01:34;;;;;;;13.27;9.13;;;-0.50;82.10;;;;;;5009619;28;20214;-81
2020/12/08 03:04:02;;;;;;;15.07;9.20;;;-0.50;82.10;;;;;;5009627;28;20200;-82
2020/12/08 03:06:29;;;;;;;12.77;8.60;;;-0.50;82.20;;;;;;5004202;28;20237;-80
2020/12/08 03:08:57;;;;;;;13.37;8.50;;;-0.50;82.00;;;;;;5002431;28;20204;-82
2020/12/08 03:11:30;;;;;;;13.63;9.57;;;-0.40;82.10;;;;;;5004549;28;20577;-81
2020/12/08 03:14:00;;;;;;;15.63;9.60;;;-0.50;82.10;;;;;;5010051;28;20218;-80
2020/12/08 03:16:28;;;;;;;13.27;8.77;;;-0.40;82.10;;;;;;5015166;28;20244;-81
2020/12/08 03:18:56;;;;;;;13.43;8.57;;;-0.40;82.00;;;;;;5021616;28;20200;-82
2020/12/08 03:21:25;;;;;;;13.57;9.10;;;-0.40;82.00;;;;;;5021625;28;20231;-80
2020/12/08 03:23:52;;;;;;;12.20;8.17;;;-0.40;82.00;;;;;;5007388;28;20435;-82
2020/12/08 03:26:21;;;;;;;16.33;9.50;;;-0.40;82.10;;;;;;5013428;28;20194;-80
2020/12/08 03:28:52;;;;;;;13.13;8.70;;;-0.40;82.20;;;;;;5012817;28;20436;-82
2020/12/08 03:31:21;;;;;;;12.37;8.30;;;-0.40;82.20;;;;;;5009686;28;20203;-82
2020/12/08 03:33:48;;;;;;;8.97;6.97;;;-0.30;82.20;;;;;;5020397;28;20265;-82
2020/12/08 03:36:18;;;;;;;11.07;8.10;;;-0.40;82.10;;;;;;5021426;28;20981;-81
2020/12/08 03:38:47;;;;;;;10.23;7.40;;;-0.40;82.10;;;;;;5020453;28;20267;-81
2020/12/08 03:41:19;;;;;;;6.20;5.00;;;-0.40;82.00;;;;;;5018076;28;20219;-80
2020/12/08 03:43:47;;;;;;;11.80;8.20;;;-0.40;81.90;;;;;;5025149;28;20554;-80
2020/12/08 03:46:20;;;;;;;13.20;8.07;;;-0.40;82.00;;;;;;5005879;28;20207;-81
2020/12/08 03:48:47;;;;;;;11.67;8.70;;;-0.50;82.00;;;;;;5010356;28;20208;-81
2020/12/08 03:51:16;;;;;;;11.03;8.17;;;-0.40;82.00;;;;;;5007494;28;20311;-83
2020/12/08 03:53:45;;;;;;;11.57;8.43;;;-0.40;82.00;;;;;;5004854;28;20196;-81
2020/12/08 03:56:14;;;;;;;8.83;6.77;;;-0.40;81.90;;;;;;5005712;28;20691;-82
2020/12/08 03:58:42;;;;;;;11.20;8.03;;;-0.40;81.70;;;;;;5004123;28;20209;-80
2020/12/08 04:01:15;;;;;;;10.80;6.80;;;-0.40;81.70;;;;;;5006699;28;20208;-80
2020/12/08 04:03:44;;;;;;;12.53;7.50;;;-0.30;81.70;;;;;;5004579;28;20895;-82
2020/12/08 04:06:12;;;;;;;10.37;7.90;;;-0.30;81.70;;;;;;5003935;28;20754;-80
2020/12/08 04:08:40;;;;;;;12.50;7.90;;;-0.30;81.60;;;;;;5007084;28;20295;-81
2020/12/08 04:11:07;;;;;;;12.17;6.80;;;-0.30;81.70;;;;;;5003968;28;20205;-81
2020/12/08 04:13:35;;;;;;;10.83;7.60;;;-0.20;81.60;;;;;;5005744;28;20427;-80
2020/12/08 04:16:02;;;;;;;13.43;7.90;;;-0.30;81.70;;;;;;5006374;28;20756;-81
2020/12/08 04:18:30;;;;;;;11.53;6.43;;;-0.30;81.70;;;;;;5007183;28;20199;-81
2020/12/08 04:21:00;;;;;;;12.10;7.17;;;-0.40;81.60;;;;;;5005877;28;20618;-80
2020/12/08 04:23:27;;;;;;;9.83;7.23;;;-0.30;81.70;;;;;;5004071;28;20204;-81
2020/12/08 04:25:55;;;;;;;11.37;6.77;;;-0.30;81.70;;;;;;5010027;28;20243;-81
2020/12/08 04:28:23;;;;;;;10.73;7.03;;;-0.30;81.70;;;;;;5006624;28;20568;-82
2020/12/08 04:30:51;;;;;;;9.97;8.00;;;-0.30;81.70;;;;;;5009728;28;20207;-80
2020/12/08 04:33:19;;;;;;;11.17;7.50;;;-0.40;81.70;;;;;;5005058;28;20300;-81
2020/12/08 04:35:47;;;;;;;9.33;6.33;;;-0.40;81.80;;;;;;5000223;28;20448;-80
2020/12/08 04:38:15;;;;;;;10.10;7.23;;;-0.30;81.60;;;;;;5009021;28;20570;-82
2020/12/08 04:40:47;;;;;;;7.83;5.03;;;-0.40;81.60;;;;;;5010494;28;20321;-80
2020/12/08 04:43:15;;;;;;;9.03;6.40;;;-0.30;81.70;;;;;;5021417;28;20280;-82
2020/12/08 04:45:43;;;;;;;12.07;7.00;;;-0.30;81.60;;;;;;5022111;28;20199;-81
2020/12/08 04:48:11;;;;;;;10.13;7.40;;;-0.30;81.70;;;;;;5017587;28;20210;-82
2020/12/08 04:50:38;;;;;;;7.37;5.43;;;-0.30;81.70;;;;;;5011369;28;20232;-81
2020/12/08 04:53:07;;;;;;;8.37;6.53;;;-0.30;81.70;;;;;;5007386;28;20368;-82
2020/12/08 04:55:36;;;;;;;11.17;5.73;;;-0.30;81.60;;;;;;5009370;28;20218;-80
2020/12/08 04:58:04;;;;;;;6.97;5.50;;;-0.30;81.50;;;;;;5019872;28;20240;-82
2020/12/08 05:00:39;;;;;;;5.37;4.47;;;-0.30;81.60;;;;;;5021797;28;20218;-83
2020/12/08 05:03:08;;;;;;;9.03;6.43;;;-0.30;81.50;;;;;;5023991;28;20214;-81
2020/12/08 05:05:40;;;;;;;8.67;5.50;;;-0.20;81.50;;;;;;5020409;28;20366;-81
2020/12/08 05:08:11;;;;;;;8.63;4.83;;;-0.30;81.50;;;;;;5012818;28;20195;-79
2020/12/08 05:10:40;;;;;;;8.00;6.30;;;-0.30;81.50;;;;;;5006706;28;20199;-82
2020/12/08 05:13:15;;;;;;;8.13;6.30;;;-0.20;81.50;;;;;;5019805;28;20265;-81
2020/12/08 05:15:43;;;;;;;12.90;6.83;;;-0.20;81.60;;;;;;5020178;28;20219;-80
2020/12/08 05:18:11;;;;;;;10.70;6.83;;;-0.20;81.50;;;;;;5023643;28;20294;-81
2020/12/08 05:20:39;;;;;;;9.70;6.37;;;-0.20;81.70;;;;;;5008238;28;20506;-80
2020/12/08 05:23:06;;;;;;;9.53;6.40;;;-0.30;81.70;;;;;;4999863;28;20204;-80
2020/12/08 05:25:34;;;;;;;7.67;6.00;;;-0.30;81.60;;;;;;5002288;28;20696;-82
2020/12/08 05:28:02;;;;;;;7.93;6.60;;;-0.30;81.60;;;;;;5009945;28;20717;-81
2020/12/08 05:30:30;;;;;;;10.00;6.60;;;-0.30;81.60;;;;;;5020983;28;20225;-81
2020/12/08 05:33:02;;;;;;;11.10;6.97;;;-0.30;81.60;;;;;;5023772;28;20291;-79
2020/12/08 05:35:34;;;;;;;11.00;7.03;;;-0.30;81.70;;;;;;5014935;28;20195;-83
2020/12/08 05:38:08;;;;;;;9.30;6.40;;;-0.30;81.80;;;;;;5023142;28;20215;-80
2020/12/08 05:40:39;;;;;;;8.67;6.20;;;-0.30;81.80;;;;;;5003262;28;20207;-81
2020/12/08 05:43:09;;;;;;;8.53;6.40;;;-0.30;81.80;;;;;;5010395;28;20299;-80
2020/12/08 05:45:37;;;;;;;10.93;7.10;;;-0.10;81.80;;;;;;5009533;28;20216;-81
2020/12/08 05:48:05;;;;;;;11.80;6.73;;;-0.20;81.60;;;;;;5004213;28;20262;-78
2020/12/08 05:50:33;;;;;;;10.97;7.57;;;-0.20;81.50;;;;;;5006684;28;20207;-81
2020/12/08 05:53:02;;;;;;;10.27;7.60;;;-0.30;81.60;;;;;;5005990;28;20528;-81
2020/12/08 05:55:31;;;;;;;11.13;8.33;;;-0.30;81.50;;;;;;5003018;28;20215;-80
2020/12/08 05:58:05;;;;;;;7.13;5.27;;;-0.30;81.60;;;;;;5004113;28;20228;-81
2020/12/08 06:00:35;;;;;;;10.03;7.03;;;-0.30;81.60;;;;;;4995744;28;20210;-79
2020/12/08 06:03:10;;;;;;;9.77;7.27;;;-0.30;81.50;;;;;;4998887;28;21149;-81
2020/12/08 06:05:38;;;;;;;9.83;7.40;;;-0.40;81.50;;;;;;5000528;28;20207;-83
2020/12/08 06:08:17;;;;;;;12.23;8.90;;;-0.40;81.50;;;;;;5015331;28;20203;-81
2020/12/08 06:10:46;;;;;;;10.03;7.97;;;-0.40;81.70;;;;;;5015905;28;20223;-83
2020/12/08 06:13:24;;;;;;;10.97;8.63;;;-0.40;81.70;;;;;;5020483;28;20299;-82
2020/12/08 06:15:53;;;;;;;8.40;6.77;;;-0.40;81.60;;;;;;5015062;28;20298;-82
2020/12/08 06:18:32;;;;;;;12.53;8.03;;;-0.40;81.60;;;;;;5011195;28;20239;-81
2020/12/08 06:21:02;;;;;;;11.37;8.30;;;-0.30;81.60;;;;;;5008687;28;20258;-81
2020/12/08 06:23:30;;;;;;;10.90;8.80;;;-0.40;81.60;;;;;;5006084;28;20193;-83
2020/12/08 06:25:59;;;;;;;13.13;8.27;;;-0.40;81.70;;;;;;5001123;28;20530;-82
2020/12/08 06:28:28;;;;;;;11.30;8.43;;;-0.30;81.70;;;;;;5000454;28;20219;-81
2020/12/08 06:31:04;;;;;;;12.17;8.13;;;-0.40;81.60;;;;;;5002273;28;20564;-82
2020/12/08 06:33:44;;;;;;;12.60;9.57;;;-0.30;81.80;;;;;;5010045;28;20207;-81
2020/12/08 06:36:13;;;;;;;15.57;8.97;;;-0.30;81.80;;;;;;5010163;28;20207;-83
2020/12/08 06:38:40;;;;;;;12.90;8.33;;;-0.30;81.60;;;;;;4997231;28;20283;-83
2020/12/08 06:41:09;;;;;;;13.80;8.17;;;-0.30;81.70;;;;;;5001114;28;20665;-83
2020/12/08 06:43:41;;;;;;;12.27;8.93;;;-0.30;81.60;;;;;;5002966;28;20400;-84
2020/12/08 06:46:21;;;;;;;11.37;8.70;;;-0.10;81.70;;;;;;5001447;28;20261;-85
2020/12/08 06:49:00;;;;;;;11.80;8.77;;;-0.10;81.70;;;;;;5004215;28;20197;-82
2020/12/08 06:51:28;;;;;;;11.13;8.27;;;-0.10;81.50;;;;;;5009523;28;20214;-85
2020/12/08 06:54:01;;;;;;;11.57;8.87;;;-0.20;81.60;;;;;;4993471;28;20212;-85
2020/12/08 06:56:31;;;;;;;13.63;8.90;;;-0.20;81.50;;;;;;4995182;28;20208;-82
2020/12/08 06:59:00;;;;;;;10.83;8.30;;;-0.10;81.60;;;;;;4982658;28;21369;-84
2020/12/08 07:01:28;;;;;;;13.53;8.70;;;-0.10;81.40;;;;;;4996585;28;20893;-83
2020/12/08 07:03:56;;;;;;;9.80;6.60;;;-0.10;81.30;;;;;;4994960;28;20488;-83
2020/12/08 07:06:26;;;;;;;13.43;8.93;;;-0.20;81.40;;;;;;5002125;28;20613;-80
2020/12/08 07:08:56;;;;;;;12.37;8.07;;;-0.10;81.50;;;;;;5007848;28;20294;-83
2020/12/08 07:11:27;;;;;;;14.30;9.10;;;-0.10;81.50;;;;;;5004443;28;20204;-80
2020/12/08 07:13:59;;;;;;;14.83;8.47;;;-0.10;81.50;;;;;;4994852;28;20652;-83
2020/12/08 07:16:30;;;;;;;13.27;8.77;;;-0.20;81.50;;;;;;4994796;28;21128;-83
2020/12/08 07:18:58;;;;;;;15.37;9.07;;;-0.10;81.60;;;;;;4995508;28;20212;-81
2020/12/08 07:21:27;;;;;;;12.33;9.07;;;-0.10;81.70;;;;;;5003996;28;20231;-84
2020/12/08 07:24:13;;;;;;;11.93;8.27;;;0.00;81.60;;;;;;4992656;28;20366;-85
2020/12/08 07:26:42;;;;;;;12.70;9.07;;;0.00;81.70;;;;;;5000734;28;20201;-84
2020/12/08 07:29:11;;;;;;;12.07;7.97;;;0.00;81.70;;;;;;4999793;28;20461;-82
2020/12/08 07:31:46;;;;;;;10.10;7.67;;;0.00;81.70;;;;;;4997828;28;20235;-82
2020/12/08 07:34:14;;;;;;;13.73;9.47;;;-0.10;81.70;;;;;;5010039;28;20204;-81
2020/12/08 07:36:42;;;;;;;12.87;8.97;;;-0.10;81.80;;;;;;5014477;28;20678;-82
2020/12/08 07:39:16;;;;;;;11.97;9.17;;;-0.10;81.80;;;;;;5009114;28;20266;-81
2020/12/08 07:41:46;;;;;;;15.73;8.73;;;-0.10;81.90;;;;;;5008607;28;20199;-83
2020/12/08 07:44:16;;;;;;;12.80;9.27;;;-0.20;81.90;;;;;;5001151;28;20270;-84
2020/12/08 07:46:52;;;;;;;15.57;9.60;;;-0.10;82.00;;;;;;4992553;28;20224;-82
2020/12/08 07:49:20;;;;;;;14.93;9.37;;;-0.10;82.00;;;;;;4991322;28;20659;-83
2020/12/08 07:51:51;;;;;;;12.67;9.07;;;-0.10;82.00;;;;;;4991813;28;20298;-82
2020/12/08 07:54:19;;;;;;;12.63;9.07;;;-0.10;82.10;;;;;;4997280;28;20400;-82
2020/12/08 07:56:48;;;;;;;14.80;9.77;;;0.00;82.00;;;;;;5004870;28;20254;-84
2020/12/08 07:59:15;;;;;;;11.40;7.77;;;0.00;82.00;;;;;;4991494;28;20208;-83
2020/12/08 08:01:44;;;;;;;15.27;9.30;;;-0.10;81.90;;;;;;4996312;28;20649;-82
2020/12/08 08:04:18;;;;;;;16.13;10.07;;;-0.10;81.90;;;;;;4986259;28;20218;-82
2020/12/08 08:06:46;;;;;;;16.63;9.93;;;-0.10;81.90;;;;;;4989868;28;20684;-84
2020/12/08 08:09:16;;;;;;;18.30;11.17;;;-0.10;82.00;;;;;;4990177;28;20237;-85
2020/12/08 08:11:45;;;;;;;16.20;9.30;;;0.00;82.00;;;;;;4999530;28;20202;-80
2020/12/08 08:14:14;;;;;;;14.37;9.30;;;0.00;81.90;;;;;;4991244;28;20227;-82
2020/12/08 08:16:43;;;;;;;9.90;6.83;;;0.00;81.80;;;;;;5000440;28;20598;-85
2020/12/08 08:19:14;;;;;;;13.10;8.27;;;0.00;82.00;;;;;;5010011;28;20193;-85
2020/12/08 08:21:45;;;;;;;14.93;9.70;;;-0.10;81.90;;;;;;4992154;28;20206;-84
2020/12/08 08:24:13;;;;;;;14.97;9.60;;;0.00;81.70;;;;;;5003812;28;20451;-82
2020/12/08 08:26:41;;;;;;;15.63;9.63;;;0.00;81.70;;;;;;4999139;28;20707;-82
2020/12/08 08:29:09;;;;;;;18.30;8.57;;;0.10;81.70;;;;;;4986909;28;20208;-81
2020/12/08 08:31:37;;;;;;;10.57;7.17;;;0.10;81.60;;;;;;4982771;28;20444;-83
2020/12/08 08:34:05;;;;;;;13.87;7.77;;;0.10;81.30;;;;;;4993225;28;20212;-82
2020/12/08 08:36:34;;;;;;;13.83;8.90;;;0.10;81.40;;;;;;4986096;28;20299;-81
2020/12/08 08:39:03;;;;;;;14.30;8.70;;;0.30;81.50;;;;;;5001452;28;20251;-81
2020/12/08 08:41:30;;;;;;;11.67;7.93;;;0.10;81.50;;;;;;5004891;28;20202;-83
2020/12/08 08:43:58;;;;;;;12.23;8.20;;;0.20;81.20;;;;;;5011771;28;20308;-84
2020/12/08 08:46:30;;;;;;;12.10;7.00;;;0.20;81.20;;;;;;5003515;28;20288;-80
2020/12/08 08:48:58;;;;;;;16.37;8.10;;;0.20;81.30;;;;;;5005218;28;20209;-82
2020/12/08 08:51:26;;;;;;;11.40;8.80;;;0.20;81.10;;;;;;4990402;28;20205;-83
2020/12/08 08:53:54;;;;;;;13.47;7.80;;;0.20;81.20;;;;;;4997708;28;20204;-83
2020/12/08 08:56:26;;;;;;;9.00;7.50;;;0.20;81.10;;;;;;4993719;28;20737;-82
2020/12/08 08:58:55;;;;;;;7.77;5.80;;;0.30;81.20;;;;;;5020249;28;20224;-83
2020/12/08 09:01:26;;;;;;;13.70;7.67;;;0.30;81.10;;;;;;5015495;28;20205;-82
2020/12/08 09:03:54;;;;;;;13.60;8.40;;;0.30;81.20;;;;;;5009145;28;20208;-84
2020/12/08 09:06:24;;;;;;;11.80;8.07;;;0.30;81.10;;;;;;4986356;28;20212;-84
2020/12/08 09:08:55;;;;;;;13.30;8.90;;;0.30;81.10;;;;;;4991634;28;20618;-80
2020/12/08 09:11:27;;;;;;;13.07;9.30;;;0.10;81.00;;;;;;4993848;28;20257;-82
2020/12/08 09:13:56;;;;;;;14.07;8.87;;;0.30;81.10;;;;;;4992202;28;20754;-81
2020/12/08 09:16:25;;;;;;;11.23;7.57;;;0.40;81.20;;;;;;4983034;28;20244;-83
2020/12/08 09:18:53;;;;;;;14.83;8.70;;;0.30;81.00;;;;;;4981914;28;20261;-81
2020/12/08 09:21:21;;;;;;;10.70;8.10;;;0.40;81.20;;;;;;4990465;28;20207;-83
2020/12/08 09:23:49;;;;;;;11.97;8.07;;;0.40;81.20;;;;;;4979427;28;20428;-83
2020/12/08 09:26:18;;;;;;;13.37;9.03;;;0.40;81.10;;;;;;4993587;28;20249;-86
2020/12/08 09:28:48;;;;;;;13.23;8.47;;;0.40;81.20;;;;;;4998861;28;20309;-83
2020/12/08 09:31:18;;;;;;;15.27;9.93;;;0.30;81.10;;;;;;4988989;28;20214;-82
2020/12/08 09:33:51;;;;;;;12.50;8.20;;;0.50;81.40;;;;;;4996226;28;20264;-83
2020/12/08 09:36:20;;;;;;;14.57;9.13;;;0.50;81.30;;;;;;5004408;28;20198;-82
2020/12/08 09:38:49;;;;;;;14.13;9.17;;;0.50;81.20;;;;;;4983373;28;20624;-84
2020/12/08 09:41:17;;;;;;;14.43;9.87;;;0.50;81.40;;;;;;4982571;28;20602;-83
2020/12/08 09:43:45;;;;;;;11.63;8.67;;;0.50;81.40;;;;;;4981526;28;20198;-82
2020/12/08 09:46:16;;;;;;;12.23;7.07;;;0.50;81.30;;;;;;4984420;28;20215;-82
2020/12/08 09:48:44;;;;;;;15.87;9.53;;;0.50;81.20;;;;;;4984747;28;20200;-81
2020/12/08 09:51:12;;;;;;;13.67;9.87;;;0.40;81.30;;;;;;4983928;28;20580;-83
2020/12/08 09:53:43;;;;;;;18.60;11.50;;;0.50;81.40;;;;;;4984127;28;20202;-84
2020/12/08 09:56:11;;;;;;;13.63;8.43;;;0.60;81.60;;;;;;4988824;28;20560;-84
2020/12/08 09:58:42;;;;;;;15.23;10.17;;;0.60;81.40;;;;;;4996354;28;20590;-83
2020/12/08 10:01:10;;;;;;;16.40;9.97;;;0.60;81.50;;;;;;4995102;28;20465;-84
2020/12/08 10:03:42;;;;;;;20.20;11.00;;;0.60;81.70;;;;;;4999791;28;20442;-84
2020/12/08 10:06:15;;;;;;;15.43;10.23;;;0.60;81.60;;;;;;5007086;28;20206;-82
2020/12/08 10:08:43;;;;;;;19.77;11.77;;;0.60;81.80;;;;;;4993807;28;20211;-85
2020/12/08 10:11:13;;;;;;;16.03;11.33;;;0.60;81.90;;;;;;4998649;28;20328;-85
2020/12/08 10:13:51;;;;;;;15.60;10.87;;;0.60;81.90;;;;;;4998753;28;20226;-82
2020/12/08 10:16:20;;;;;;;16.33;10.57;;;0.70;81.80;;;;;;4985774;28;20278;-84
2020/12/08 10:18:59;;;;;;;18.53;11.53;;;0.60;81.70;;;;;;4993655;28;20288;-83
2020/12/08 10:21:31;;;;;;;17.60;12.17;;;0.70;81.80;;;;;;5006631;28;20238;-82
2020/12/08 10:23:59;;;;;;;16.90;11.17;;;0.70;81.80;;;;;;5004975;28;20658;-84
2020/12/08 10:26:32;;;;;;;18.60;11.60;;;0.70;82.00;;;;;;5008882;28;20196;-84
2020/12/08 10:29:02;;;;;;;16.70;11.90;;;0.70;82.10;;;;;;5004024;28;20211;-83
2020/12/08 10:31:31;;;;;;;18.20;11.63;;;0.60;82.00;;;;;;5014562;28;20207;-84
2020/12/08 10:34:01;;;;;;;17.63;11.70;;;0.70;82.10;;;;;;5001414;28;20213;-84
2020/12/08 10:36:30;;;;;;;17.73;11.90;;;0.70;82.00;;;;;;4999977;28;20212;-82
2020/12/08 10:38:59;;;;;;;18.83;12.13;;;0.60;82.00;;;;;;5017144;28;20391;-81
2020/12/08 10:41:33;;;;;;;19.73;12.13;;;0.60;82.20;;;;;;5019297;28;20190;-83
2020/12/08 10:44:06;;;;;;;20.63;12.20;;;0.60;82.20;;;;;;5018336;28;20198;-83
2020/12/08 10:46:35;;;;;;;19.47;12.80;;;0.60;82.10;;;;;;5223538;23;20559;-83
2020/12/08 10:49:05;;;;;;;19.03;11.97;;;0.60;82.20;;;;;;5015541;28;20192;-83
2020/12/08 10:51:45;;;;;;;19.47;11.83;;;0.60;82.20;;;;;;5019912;28;20220;-80
2020/12/08 10:54:16;;;;;;;18.40;12.50;;;0.70;82.20;;;;;;5018036;28;20183;-84
2020/12/08 10:56:51;;;;;;;31.87;12.20;;;0.70;82.30;;;;;;5002817;28;20223;-85
2020/12/08 10:59:22;;;;;;;19.67;10.83;;;0.70;82.30;;;;;;5020129;28;20216;-82
2020/12/08 11:02:02;;;;;;;18.03;10.63;;;0.80;82.20;;;;;;5017176;28;20204;-86
2020/12/08 11:04:32;;;;;;;14.97;9.87;;;0.70;82.10;;;;;;5019604;28;20191;-84
2020/12/08 11:07:00;;;;;;;24.17;11.33;;;0.70;82.10;;;;;;5019913;28;20229;-83
2020/12/08 11:09:28;;;;;;;17.90;10.70;;;0.70;82.20;;;;;;5010622;28;20999;-85
2020/12/08 11:11:56;;;;;;;17.13;12.50;;;0.60;82.20;;;;;;5011105;28;20244;-84
2020/12/08 11:14:25;;;;;;;16.53;10.50;;;0.60;82.30;;;;;;5008970;28;20283;-85
2020/12/08 11:16:55;;;;;;;16.07;11.50;;;0.60;82.40;;;;;;5023437;28;20201;-84
2020/12/08 11:19:36;;;;;;;19.77;13.43;;;0.60;82.20;;;;;;5012923;28;20229;-85
2020/12/08 11:22:05;;;;;;;18.23;11.87;;;0.60;82.40;;;;;;5012352;28;20205;-84
2020/12/08 11:24:40;;;;;;;15.87;10.20;;;0.60;82.30;;;;;;4996005;28;20547;-83
2020/12/08 11:27:18;;;;;;;20.27;12.63;;;0.60;82.50;;;;;;4998748;28;20217;-83
2020/12/08 11:29:47;;;;;;;18.17;10.43;;;0.70;82.60;;;;;;4998079;28;20208;-81
2020/12/08 11:32:16;;;;;;;20.07;12.37;;;0.60;82.40;;;;;;4993642;28;20211;-85
2020/12/08 11:34:46;;;;;;;18.33;11.70;;;0.60;82.40;;;;;;4985810;28;20212;-85
2020/12/08 11:37:15;;;;;;;18.77;10.57;;;0.60;82.30;;;;;;4970222;28;20577;-82
2020/12/08 11:39:42;;;;;;;17.43;12.07;;;0.70;82.50;;;;;;4986514;28;20272;-81
2020/12/08 11:42:14;;;;;;;22.40;12.33;;;0.90;82.40;;;;;;4992784;28;20220;-81
2020/12/08 11:44:43;;;;;;;20.30;12.30;;;0.70;82.50;;;;;;4987085;28;20622;-85
2020/12/08 11:47:11;;;;;;;20.47;11.87;;;0.70;82.40;;;;;;4998657;28;20199;-82
2020/12/08 11:49:40;;;;;;;18.73;11.00;;;0.70;82.50;;;;;;5022280;28;20213;-85
2020/12/08 11:52:12;;;;;;;22.33;12.40;;;0.70;82.30;;;;;;5000939;28;20209;-81
2020/12/08 11:55:13;;;;;;;17.97;11.83;;;0.70;82.40;;;;;;4984076;28;20278;-84
2020/12/08 11:57:41;;;;;;;18.20;11.87;;;0.70;82.40;;;;;;4903861;28;20245;-83
2020/12/08 12:00:09;;;;;;;16.17;11.23;;;0.80;82.40;;;;;;4927311;28;20226;-84
2020/12/08 12:02:37;;;;;;;21.20;12.33;;;0.70;82.50;;;;;;4981876;28;20202;-84
2020/12/08 12:05:07;;;;;;;19.87;12.20;;;0.80;82.50;;;;;;4958044;28;20248;-83
2020/12/08 12:07:35;;;;;;;20.23;11.87;;;0.80;82.80;;;;;;4982732;28;20211;-82
2020/12/08 12:10:07;;;;;;;18.77;12.40;;;0.70;82.80;;;;;;4978556;28;20279;-84
2020/12/08 12:12:35;;;;;;;19.17;11.83;;;0.70;82.90;;;;;;4983340;28;21222;-84
2020/12/08 12:15:03;;;;;;;17.33;11.63;;;0.60;82.90;;;;;;4977410;28;20655;-83
2020/12/08 12:17:30;;;;;;;19.37;12.13;;;0.60;83.10;;;;;;4985681;28;20910;-83
2020/12/08 12:20:04;;;;;;;19.93;13.10;;;0.60;83.50;;;;;;4999921;28;20487;-82
2020/12/08 12:22:37;;;;;;;22.27;13.37;;;0.60;83.70;;;;;;4986168;28;20276;-83
2020/12/08 12:25:09;;;;;;;18.80;12.43;;;0.60;84.10;;;;;;4993197;28;21129;-83
2020/12/08 12:27:37;;;;;;;22.00;13.33;;;0.60;84.10;;;;;;4985084;28;20308;-83
2020/12/08 12:30:06;;;;;;;20.13;12.07;;;0.60;84.20;;;;;;4996431;28;20409;-81
2020/12/08 12:32:36;;;;;;;18.80;12.30;;;0.50;84.10;;;;;;4991075;28;20212;-80
2020/12/08 12:35:04;;;;;;;20.70;13.30;;;0.50;84.30;;;;;;4992296;28;20210;-83
2020/12/08 12:37:31;;;;;;;19.20;12.33;;;0.50;84.40;;;;;;5001923;28;20281;-83
2020/12/08 12:40:01;;;;;;;20.13;13.20;;;0.50;84.90;;;;;;4994200;28;20200;-84
2020/12/08 12:42:30;;;;;;;26.13;13.93;;;0.50;84.90;;;;;;4988433;28;20192;-83
2020/12/08 12:44:58;;;;;;;22.93;13.23;;;0.50;85.00;;;;;;4977949;28;20207;-83
2020/12/08 12:47:25;;;;;;;21.87;11.63;;;0.50;85.20;;;;;;4986406;28;20246;-83
2020/12/08 12:49:53;;;;;;;22.43;13.23;;;0.40;85.40;;;;;;4992230;28;20345;-83